Pagina principale
METAR-TAF:

METAR-TAF

Aeroporti :

Aeroporto Internazionale di Tuzla

Tuzla, Bosnia-Erzegovina

latitudine: 44-33N, longitudine: 018-42E, altezza: 306 m

Osservazione

Il bollettino è stato emesso 24 minuti fa, alle 05:30 UTC
Vento 1 kt da direzioni variabili
Temperature 15°C
Umidità 100%
Pressione 1017 hPa
Visibilità: 1600 m
Poco nuvoloso ad un'altezza di 100 ft
foschia

METAR: LQTZ 030530Z VRB01KT 1600 BR FEW001 15/15 Q1017

Ora: 07:54 (05:54 UTC)

Previsione

Il bollettino è stato emesso 54 minuti fa, alle 05:00 UTC
Previsione valida dal 03 alle 06 UTC al 04 alle 06 UTC
Vento 5 kt da est/nord-est
Visibilità 10 km o più
nessuna nube inferiore a 1500 m e nessun cumulonembo
Probabilità 30% :
Temporaneamente
dal 03 alle 14 UTC al 03 alle 19 UTC
Poco nuvoloso ad un'altezza di 3500 ft, Cumulonembo.
Nubi sparse ad un'altezza di 4500 ft
temporale, pioggia

TAF: LQTZ 030500Z 0306/0406 07005KT CAVOK TX30/0314Z TN13/0403Z PROB30 TEMPO 0314/0319 TSRA FEW035CB SCT045

Osservazioni e previsioni meteorologiche di più di 4000 aeroporti (messaggi METAR e TAF).

Le stazioni disponibili sono rappresentate dai dischi gialli e rossi sulla carta.

Puntare il mouse per vedere il nome della stazione.

Clicca sopra per visualizzare le osservazioni e previsioni meteorologiche.

Per cambiare la mappa : fare clic sui pulsanti verdi con una croce nera per ingrandire, il pulsante verde con un trattino per diminuire, o sulla freccia verde per le mappe adiacenti.


METAR-TAF: